Regal — V7TE7 — position and weather

sailwx.info

Track history (hours):
 
Tides and Currents Weather Stations Pressure Air Temp Water Temp Dewpoint Dewpoint Depression Visibility Wind Speed Wind Dir Waves Ship Positions

Regal

Last reported at 2017-Sep-21 06:16 UTC. Time now 2017-Sep-22 10:12 UTC.
Position N 35°54' W 005°51'.

Length 190 m; draft 12.3 m.

Type: Ship. MMSI: 538006950.

Date/timePositionNaut miles runAvg speedWind from/ knotsBaromVisibWave heightAir tempDewpointWater temp
2017-Sep-21 06:16N 35°54' W 005°51'310.2
2017-Sep-21 05:57N 35°56' W 005°47'510.5
2017-Sep-21 05:30N 35°57' W 005°41'510.6
2017-Sep-21 05:00N 35°57' W 005°35'511.0
2017-Sep-21 04:30N 35°59' W 005°29'5 9.9
2017-Sep-21 04:00N 36°02' W 005°23'5 9.3
2017-Sep-21 03:30N 36°06' W 005°22'1 2.1
2017-Sep-21 03:00N 36°07' W 005°22'0 0.0
2017-Sep-21 02:26N 36°07' W 005°22'0 0.1
2017-Sep-21 02:00N 36°07' W 005°22'0 0.1
2017-Sep-21 01:30N 36°07' W 005°22'0 0.0
2017-Sep-21 01:00N 36°07' W 005°22'0 0.0
2017-Sep-21 00:29N 36°07' W 005°22'0 0.1
2017-Sep-21 00:01N 36°07' W 005°22'0 0.1
2017-Sep-20 23:30N 36°07' W 005°22'0 0.0
2017-Sep-20 22:36N 36°07' W 005°22'0 0.1
2017-Sep-20 22:30N 36°07' W 005°22'0 0.0
2017-Sep-20 21:45N 36°07' W 005°22'0 0.0
2017-Sep-20 21:23N 36°07' W 005°22'0 0.0
2017-Sep-20 20:50N 36°07' W 005°22'0 0.1
2017-Sep-20 20:26N 36°07' W 005°22'0 0.0
2017-Sep-20 19:53N 36°07' W 005°22'0 0.0
2017-Sep-20 19:22N 36°07' W 005°22'0 0.1
2017-Sep-20 18:58N 36°07' W 005°22'0 0.0
2017-Sep-20 17:58N 36°07' W 005°22'0 0.0
2017-Sep-20 17:10N 36°07' W 005°22'0 0.0
2017-Sep-20 16:45N 36°07' W 005°22'0 0.0
2017-Sep-20 16:26N 36°07' W 005°22'0 0.0
2017-Sep-20 15:44N 36°07' W 005°22'0 0.0
2017-Sep-20 15:28N 36°07' W 005°22'0 0.0
2017-Sep-20 13:39N 36°07' W 005°22'0 0.1
2017-Sep-20 13:09N 36°07' W 005°22'0 0.1
2017-Sep-20 12:59N 36°07' W 005°22'0 0.1
2017-Sep-20 12:25N 36°07' W 005°22'2 3.8
2017-Sep-20 11:59N 36°06' W 005°22'1 3.1
2017-Sep-20 11:30N 36°05' W 005°20'3 6.4
2017-Sep-20 11:00N 36°05' W 005°16'2 4.3
2017-Sep-20 10:28N 36°05' W 005°13'1 1.1
2017-Sep-20 10:00N 36°05' W 005°13'0 0.7
2017-Sep-20 09:30N 36°05' W 005°12'0 0.6
2017-Sep-20 09:00N 36°05' W 005°12'0 0.2
2017-Sep-20 08:30N 36°05' W 005°12'1 0.5
2017-Sep-20 07:12N 36°06' W 005°12'0 0.8
2017-Sep-20 07:00N 36°06' W 005°12'1 0.6
2017-Sep-20 06:02N 36°07' W 005°11'0 1.0
2017-Sep-20 05:59N 36°07' W 005°11'2 3.8
2017-Sep-20 05:30N 36°07' W 005°09'35412.0
2017-Sep-18 23:56N 36°53' E 002°08'1112.0
2017-Sep-18 23:00N 36°55' E 002°22'611.6
2017-Sep-18 22:30N 36°55' E 002°29'1111.6
2017-Sep-18 21:32N 36°57' E 002°43'011.5
2017-Sep-18 21:30N 36°57' E 002°44'46011.8
2017-Sep-17 06:25N 37°00' E 012°20'512.1
2017-Sep-17 06:00N 36°59' E 012°26'612.3
2017-Sep-17 05:29N 36°57' E 012°33'612.3
2017-Sep-17 05:00N 36°55' E 012°40'612.6
2017-Sep-17 04:30N 36°53' E 012°48'612.6
2017-Sep-17 04:00N 36°51' E 012°55'612.6
2017-Sep-17 03:30N 36°49' E 013°03'612.8
2017-Sep-17 03:00N 36°47' E 013°11'612.6
2017-Sep-17 02:30N 36°46' E 013°18'612.3
2017-Sep-17 02:00N 36°44' E 013°26'612.3
2017-Sep-17 01:30N 36°42' E 013°33'612.2
2017-Sep-17 01:00N 36°40' E 013°40'612.2
2017-Sep-17 00:30N 36°38' E 013°47'612.3
2017-Sep-17 00:00N 36°36' E 013°55'612.1
2017-Sep-16 23:30N 36°35' E 014°02'612.0
2017-Sep-16 23:00N 36°33' E 014°09'612.3
2017-Sep-16 22:30N 36°31' E 014°16'612.4
2017-Sep-16 22:00N 36°29' E 014°24'612.5
2017-Sep-16 21:30N 36°28' E 014°31'612.2
2017-Sep-16 21:00N 36°27' E 014°39'612.0
2017-Sep-16 20:30N 36°27' E 014°46'612.0
2017-Sep-16 20:00N 36°27' E 014°54'611.8
2017-Sep-16 19:30N 36°27' E 015°01'611.6
2017-Sep-16 19:00N 36°27' E 015°08'611.9
2017-Sep-16 18:30N 36°27' E 015°16'612.7
2017-Sep-16 18:00N 36°27' E 015°23'712.9
2017-Sep-16 17:27N 36°26' E 015°32'613.1
2017-Sep-16 17:00N 36°26' E 015°40'713.1
2017-Sep-16 16:29N 36°26' E 015°48'612.9
2017-Sep-16 16:00N 36°26' E 015°56'812.6
2017-Sep-16 15:20N 36°26' E 016°06'412.5
2017-Sep-16 15:00N 36°26' E 016°12'612.4
2017-Sep-16 14:30N 36°25' E 016°19'712.4
2017-Sep-16 13:58N 36°25' E 016°27'612.3
2017-Sep-16 13:30N 36°25' E 016°34'612.2
2017-Sep-16 13:00N 36°25' E 016°42'612.2
2017-Sep-16 12:30N 36°25' E 016°50'612.2
2017-Sep-16 12:00N 36°25' E 016°57'612.3
2017-Sep-16 11:30N 36°24' E 017°05'612.4
2017-Sep-16 11:00N 36°24' E 017°13'1012.6
2017-Sep-16 10:14N 36°24' E 017°25'3212.6
2017-Sep-16 07:41N 36°23' E 018°05'212.3
2017-Sep-16 07:30N 36°23' E 018°07'5012.8
2017-Sep-16 03:35N 36°22' E 019°10'112.9
2017-Sep-16 03:30N 36°22' E 019°11'712.5
2017-Sep-16 02:56N 36°22' E 019°20'512.6
2017-Sep-16 02:30N 36°21' E 019°26'2312.4
2017-Sep-16 00:37N 36°21' E 019°55'212.6
2017-Sep-16 00:27N 36°21' E 019°58'  
2017-Sep-12 18:50N 43°22' E 028°52'412.0
2017-Sep-12 18:31N 43°26' E 028°52'611.9
2017-Sep-12 18:00N 43°32' E 028°51'611.7
2017-Sep-12 17:31N 43°38' E 028°50'611.4
2017-Sep-12 17:01N 43°44' E 028°50'611.1
2017-Sep-12 16:31N 43°49' E 028°49'611.2
2017-Sep-12 16:00N 43°55' E 028°49'511.1
2017-Sep-12 15:30N 44°00' E 028°47'511.0
2017-Sep-12 15:00N 44°05' E 028°43'3 6.8
2017-Sep-12 14:30N 44°08' E 028°41'2 3.1
2017-Sep-12 14:00N 44°09' E 028°39'0 0.8
2017-Sep-12 13:30N 44°09' E 028°39'0 0.0
2017-Sep-12 12:59N 44°09' E 028°39'0 0.0
2017-Sep-12 12:29N 44°09' E 028°39'0 0.0
2017-Sep-12 06:30N 44°09' E 028°39'0 0.0
2017-Sep-12 06:00N 44°09' E 028°39'0 0.0
2017-Sep-12 05:26N 44°09' E 028°39'0 0.0
2017-Sep-12 04:59N 44°09' E 028°39'0 0.0
2017-Sep-12 04:29N 44°09' E 028°39'0 0.0
2017-Sep-12 03:59N 44°09' E 028°39'0 0.0
2017-Sep-12 03:26N 44°09' E 028°39'0 0.0
2017-Sep-12 02:56N 44°09' E 028°39'0 0.0
2017-Sep-12 02:29N 44°09' E 028°39'0 0.0
2017-Sep-12 01:59N 44°09' E 028°39'0 0.0
2017-Sep-12 01:25N 44°09' E 028°39'0 0.0
2017-Sep-12 00:58N 44°09' E 028°39'0 0.0
2017-Sep-12 00:28N 44°09' E 028°39'0 0.0
2017-Sep-11 23:58N 44°09' E 028°39'0 0.0
2017-Sep-11 23:28N 44°09' E 028°39'0 0.0
2017-Sep-11 22:58N 44°09' E 028°39'0 0.0
2017-Sep-11 22:28N 44°09' E 028°39'0 0.0
2017-Sep-11 21:58N 44°09' E 028°39'0 0.0
2017-Sep-11 21:25N 44°09' E 028°39'0 0.0
2017-Sep-11 20:58N 44°09' E 028°39'0 0.0
2017-Sep-11 20:28N 44°09' E 028°39'0 0.0
2017-Sep-11 19:58N 44°09' E 028°39'0 0.0
2017-Sep-11 19:24N 44°09' E 028°39'0 0.0
2017-Sep-11 18:59N 44°09' E 028°39'0 0.0
2017-Sep-11 18:26N 44°09' E 028°39'0 0.0
2017-Sep-11 17:56N 44°09' E 028°39'0 0.0
2017-Sep-11 17:19N 44°09' E 028°39'0 0.0
2017-Sep-11 16:52N 44°09' E 028°39'0 0.0
2017-Sep-11 16:28N 44°09' E 028°39'0 0.0
2017-Sep-11 15:58N 44°09' E 028°39'0 0.0
2017-Sep-11 15:28N 44°09' E 028°39'0 0.0
2017-Sep-11 14:58N 44°09' E 028°39'0 0.0
2017-Sep-11 14:30N 44°09' E 028°39'0 0.0
2017-Sep-11 14:00N 44°09' E 028°39'0 0.0
2017-Sep-11 13:23N 44°09' E 028°39'0 0.0
2017-Sep-11 12:59N 44°09' E 028°39'0 0.0
2017-Sep-11 12:29N 44°09' E 028°39'0 0.0
2017-Sep-11 11:58N 44°09' E 028°39'0 0.0
2017-Sep-11 11:25N 44°09' E 028°39'0 0.0
2017-Sep-11 10:52N 44°09' E 028°39'0 0.0
2017-Sep-11 10:22N 44°09' E 028°39'0 0.0
2017-Sep-11 09:58N 44°09' E 028°39'0 0.0
2017-Sep-11 09:28N 44°09' E 028°39'0 0.0
2017-Sep-11 08:49N 44°09' E 028°39'0 0.0
2017-Sep-11 08:30N 44°09' E 028°39'0 0.0
2017-Sep-11 08:00N 44°09' E 028°39'0 0.0
2017-Sep-11 07:30N 44°09' E 028°39'0 0.0
2017-Sep-11 07:00N 44°09' E 028°39'0 0.0
2017-Sep-11 06:29N 44°09' E 028°39'  
Track history (hours):
 
Tides and Currents Weather Stations Pressure Air Temp Water Temp Dewpoint Dewpoint Depression Visibility Wind Speed Wind Dir Waves Ship Positions

Regal

Last reported at 2017-Sep-21 06:16 UTC. Time now 2017-Sep-22 10:12 UTC.
Position N 35°54' W 005°51'.

Length 190 m; draft 12.3 m.

Type: Ship. MMSI: 538006950.

Date/timePositionNaut miles runAvg speedWind from/ knotsBaromVisibWave heightAir tempDewpointWater temp
2017-Sep-21 06:16N 35°54' W 005°51'310.2
2017-Sep-21 05:57N 35°56' W 005°47'510.5
2017-Sep-21 05:30N 35°57' W 005°41'510.6
2017-Sep-21 05:00N 35°57' W 005°35'511.0
2017-Sep-21 04:30N 35°59' W 005°29'5 9.9
2017-Sep-21 04:00N 36°02' W 005°23'5 9.3
2017-Sep-21 03:30N 36°06' W 005°22'1 2.1
2017-Sep-21 03:00N 36°07' W 005°22'0 0.0
2017-Sep-21 02:26N 36°07' W 005°22'0 0.1
2017-Sep-21 02:00N 36°07' W 005°22'0 0.1
2017-Sep-21 01:30N 36°07' W 005°22'0 0.0
2017-Sep-21 01:00N 36°07' W 005°22'0 0.0
2017-Sep-21 00:29N 36°07' W 005°22'0 0.1
2017-Sep-21 00:01N 36°07' W 005°22'0 0.1
2017-Sep-20 23:30N 36°07' W 005°22'0 0.0
2017-Sep-20 22:36N 36°07' W 005°22'0 0.1
2017-Sep-20 22:30N 36°07' W 005°22'0 0.0
2017-Sep-20 21:45N 36°07' W 005°22'0 0.0
2017-Sep-20 21:23N 36°07' W 005°22'0 0.0
2017-Sep-20 20:50N 36°07' W 005°22'0 0.1
2017-Sep-20 20:26N 36°07' W 005°22'0 0.0
2017-Sep-20 19:53N 36°07' W 005°22'0 0.0
2017-Sep-20 19:22N 36°07' W 005°22'0 0.1
2017-Sep-20 18:58N 36°07' W 005°22'0 0.0
2017-Sep-20 17:58N 36°07' W 005°22'0 0.0
2017-Sep-20 17:10N 36°07' W 005°22'0 0.0
2017-Sep-20 16:45N 36°07' W 005°22'0 0.0
2017-Sep-20 16:26N 36°07' W 005°22'0 0.0
2017-Sep-20 15:44N 36°07' W 005°22'0 0.0
2017-Sep-20 15:28N 36°07' W 005°22'0 0.0
2017-Sep-20 13:39N 36°07' W 005°22'0 0.1
2017-Sep-20 13:09N 36°07' W 005°22'0 0.1
2017-Sep-20 12:59N 36°07' W 005°22'0 0.1
2017-Sep-20 12:25N 36°07' W 005°22'2 3.8
2017-Sep-20 11:59N 36°06' W 005°22'1 3.1
2017-Sep-20 11:30N 36°05' W 005°20'3 6.4
2017-Sep-20 11:00N 36°05' W 005°16'2 4.3
2017-Sep-20 10:28N 36°05' W 005°13'1 1.1
2017-Sep-20 10:00N 36°05' W 005°13'0 0.7
2017-Sep-20 09:30N 36°05' W 005°12'0 0.6
2017-Sep-20 09:00N 36°05' W 005°12'0 0.2
2017-Sep-20 08:30N 36°05' W 005°12'1 0.5
2017-Sep-20 07:12N 36°06' W 005°12'0 0.8
2017-Sep-20 07:00N 36°06' W 005°12'1 0.6
2017-Sep-20 06:02N 36°07' W 005°11'0 1.0
2017-Sep-20 05:59N 36°07' W 005°11'2 3.8
2017-Sep-20 05:30N 36°07' W 005°09'35412.0
2017-Sep-18 23:56N 36°53' E 002°08'1112.0
2017-Sep-18 23:00N 36°55' E 002°22'611.6
2017-Sep-18 22:30N 36°55' E 002°29'1111.6
2017-Sep-18 21:32N 36°57' E 002°43'011.5
2017-Sep-18 21:30N 36°57' E 002°44'46011.8
2017-Sep-17 06:25N 37°00' E 012°20'512.1
2017-Sep-17 06:00N 36°59' E 012°26'612.3
2017-Sep-17 05:29N 36°57' E 012°33'612.3
2017-Sep-17 05:00N 36°55' E 012°40'612.6
2017-Sep-17 04:30N 36°53' E 012°48'612.6
2017-Sep-17 04:00N 36°51' E 012°55'612.6
2017-Sep-17 03:30N 36°49' E 013°03'612.8
2017-Sep-17 03:00N 36°47' E 013°11'612.6
2017-Sep-17 02:30N 36°46' E 013°18'612.3
2017-Sep-17 02:00N 36°44' E 013°26'612.3
2017-Sep-17 01:30N 36°42' E 013°33'612.2
2017-Sep-17 01:00N 36°40' E 013°40'612.2
2017-Sep-17 00:30N 36°38' E 013°47'612.3
2017-Sep-17 00:00N 36°36' E 013°55'612.1
2017-Sep-16 23:30N 36°35' E 014°02'612.0
2017-Sep-16 23:00N 36°33' E 014°09'612.3
2017-Sep-16 22:30N 36°31' E 014°16'612.4
2017-Sep-16 22:00N 36°29' E 014°24'612.5
2017-Sep-16 21:30N 36°28' E 014°31'612.2
2017-Sep-16 21:00N 36°27' E 014°39'612.0
2017-Sep-16 20:30N 36°27' E 014°46'612.0
2017-Sep-16 20:00N 36°27' E 014°54'611.8
2017-Sep-16 19:30N 36°27' E 015°01'611.6
2017-Sep-16 19:00N 36°27' E 015°08'611.9
2017-Sep-16 18:30N 36°27' E 015°16'612.7
2017-Sep-16 18:00N 36°27' E 015°23'712.9
2017-Sep-16 17:27N 36°26' E 015°32'613.1
2017-Sep-16 17:00N 36°26' E 015°40'713.1
2017-Sep-16 16:29N 36°26' E 015°48'612.9
2017-Sep-16 16:00N 36°26' E 015°56'812.6
2017-Sep-16 15:20N 36°26' E 016°06'412.5
2017-Sep-16 15:00N 36°26' E 016°12'612.4
2017-Sep-16 14:30N 36°25' E 016°19'712.4
2017-Sep-16 13:58N 36°25' E 016°27'612.3
2017-Sep-16 13:30N 36°25' E 016°34'612.2
2017-Sep-16 13:00N 36°25' E 016°42'612.2
2017-Sep-16 12:30N 36°25' E 016°50'612.2
2017-Sep-16 12:00N 36°25' E 016°57'612.3
2017-Sep-16 11:30N 36°24' E 017°05'612.4
2017-Sep-16 11:00N 36°24' E 017°13'1012.6
2017-Sep-16 10:14N 36°24' E 017°25'3212.6
2017-Sep-16 07:41N 36°23' E 018°05'212.3
2017-Sep-16 07:30N 36°23' E 018°07'5012.8
2017-Sep-16 03:35N 36°22' E 019°10'112.9
2017-Sep-16 03:30N 36°22' E 019°11'712.5
2017-Sep-16 02:56N 36°22' E 019°20'512.6
2017-Sep-16 02:30N 36°21' E 019°26'2312.4
2017-Sep-16 00:37N 36°21' E 019°55'212.6
2017-Sep-16 00:27N 36°21' E 019°58'  
2017-Sep-12 18:50N 43°22' E 028°52'412.0
2017-Sep-12 18:31N 43°26' E 028°52'611.9
2017-Sep-12 18:00N 43°32' E 028°51'611.7
2017-Sep-12 17:31N 43°38' E 028°50'611.4
2017-Sep-12 17:01N 43°44' E 028°50'611.1
2017-Sep-12 16:31N 43°49' E 028°49'611.2
2017-Sep-12 16:00N 43°55' E 028°49'511.1
2017-Sep-12 15:30N 44°00' E 028°47'511.0
2017-Sep-12 15:00N 44°05' E 028°43'3 6.8
2017-Sep-12 14:30N 44°08' E 028°41'2 3.1
2017-Sep-12 14:00N 44°09' E 028°39'0 0.8
2017-Sep-12 13:30N 44°09' E 028°39'0 0.0
2017-Sep-12 12:59N 44°09' E 028°39'0 0.0
2017-Sep-12 12:29N 44°09' E 028°39'0 0.0
2017-Sep-12 06:30N 44°09' E 028°39'0 0.0
2017-Sep-12 06:00N 44°09' E 028°39'0 0.0
2017-Sep-12 05:26N 44°09' E 028°39'0 0.0
2017-Sep-12 04:59N 44°09' E 028°39'0 0.0
2017-Sep-12 04:29N 44°09' E 028°39'0 0.0
2017-Sep-12 03:59N 44°09' E 028°39'0 0.0
2017-Sep-12 03:26N 44°09' E 028°39'0 0.0
2017-Sep-12 02:56N 44°09' E 028°39'0 0.0
2017-Sep-12 02:29N 44°09' E 028°39'0 0.0
2017-Sep-12 01:59N 44°09' E 028°39'0 0.0
2017-Sep-12 01:25N 44°09' E 028°39'0 0.0
2017-Sep-12 00:58N 44°09' E 028°39'0 0.0
2017-Sep-12 00:28N 44°09' E 028°39'0 0.0
2017-Sep-11 23:58N 44°09' E 028°39'0 0.0
2017-Sep-11 23:28N 44°09' E 028°39'0 0.0
2017-Sep-11 22:58N 44°09' E 028°39'0 0.0
2017-Sep-11 22:28N 44°09' E 028°39'0 0.0
2017-Sep-11 21:58N 44°09' E 028°39'0 0.0
2017-Sep-11 21:25N 44°09' E 028°39'0 0.0
2017-Sep-11 20:58N 44°09' E 028°39'0 0.0
2017-Sep-11 20:28N 44°09' E 028°39'0 0.0
2017-Sep-11 19:58N 44°09' E 028°39'0 0.0
2017-Sep-11 19:24N 44°09' E 028°39'0 0.0
2017-Sep-11 18:59N 44°09' E 028°39'0 0.0
2017-Sep-11 18:26N 44°09' E 028°39'0 0.0
2017-Sep-11 17:56N 44°09' E 028°39'0 0.0
2017-Sep-11 17:19N 44°09' E 028°39'0 0.0
2017-Sep-11 16:52N 44°09' E 028°39'0 0.0
2017-Sep-11 16:28N 44°09' E 028°39'0 0.0
2017-Sep-11 15:58N 44°09' E 028°39'0 0.0
2017-Sep-11 15:28N 44°09' E 028°39'0 0.0
2017-Sep-11 14:58N 44°09' E 028°39'0 0.0
2017-Sep-11 14:30N 44°09' E 028°39'0 0.0
2017-Sep-11 14:00N 44°09' E 028°39'0 0.0
2017-Sep-11 13:23N 44°09' E 028°39'0 0.0
2017-Sep-11 12:59N 44°09' E 028°39'0 0.0
2017-Sep-11 12:29N 44°09' E 028°39'0 0.0
2017-Sep-11 11:58N 44°09' E 028°39'0 0.0
2017-Sep-11 11:25N 44°09' E 028°39'0 0.0
2017-Sep-11 10:52N 44°09' E 028°39'0 0.0
2017-Sep-11 10:22N 44°09' E 028°39'0 0.0
2017-Sep-11 09:58N 44°09' E 028°39'0 0.0
2017-Sep-11 09:28N 44°09' E 028°39'0 0.0
2017-Sep-11 08:49N 44°09' E 028°39'0 0.0
2017-Sep-11 08:30N 44°09' E 028°39'0 0.0
2017-Sep-11 08:00N 44°09' E 028°39'0 0.0
2017-Sep-11 07:30N 44°09' E 028°39'0 0.0
2017-Sep-11 07:00N 44°09' E 028°39'0 0.0
2017-Sep-11 06:29N 44°09' E 028°39'  

Dump ship's entire track history